Time;durP1;ratioP1;P1;durP2;ratioP2;P2;SDS_P1;SDS_P2;PMS_P1;PMS_P2;Temp;Humidity;BMP_temperature;BMP_pressure;BME280_temperature;BME280_humidity;BME280_pressure;Samples;Min_cycle;Max_cycle;Signal;HPM_P1;HPM_P2
2022/12/26 00:02:03;;;;;;;107.47;66.93;;;26.80;99.90;;;;;;5093630;28;20017;-67
2022/12/26 00:04:30;;;;;;;131.05;69.70;;;26.80;99.90;;;;;;5076206;28;20500;-67
2022/12/26 00:06:56;;;;;;;126.40;74.35;;;26.80;99.90;;;;;;5075936;28;20033;-67
2022/12/26 00:09:23;;;;;;;58.65;30.30;;;26.90;99.90;;;;;;5076027;28;20052;-67
2022/12/26 00:11:49;;;;;;;79.20;33.92;;;26.90;99.90;;;;;;5075945;28;20115;-67
2022/12/26 00:14:16;;;;;;;151.20;83.50;;;26.90;99.90;;;;;;5075916;28;20040;-67
2022/12/26 00:16:45;;;;;;;67.57;32.10;;;26.90;99.90;;;;;;5075677;28;20041;-67
2022/12/26 00:19:11;;;;;;;67.40;32.05;;;26.90;99.90;;;;;;5075825;28;20025;-67
2022/12/26 00:21:38;;;;;;;62.00;24.38;;;26.90;99.90;;;;;;5076042;28;20366;-68
2022/12/26 00:24:05;;;;;;;59.25;27.27;;;26.90;99.90;;;;;;5058010;28;20398;-67
2022/12/26 00:26:35;;;;;;;64.45;32.45;;;26.90;99.90;;;;;;5075824;28;20021;-67
2022/12/26 00:29:02;;;;;;;51.17;23.38;;;26.90;99.90;;;;;;5075999;28;20036;-67
2022/12/26 00:31:31;;;;;;;48.15;22.65;;;26.90;99.90;;;;;;5075625;28;20108;-67
2022/12/26 00:33:58;;;;;;;65.78;34.75;;;26.90;99.90;;;;;;5075536;28;20034;-67
2022/12/26 00:36:31;;;;;;;61.30;29.80;;;27.00;99.90;;;;;;5074967;28;20074;-66
2022/12/26 00:39:00;;;;;;;62.15;29.73;;;27.00;99.90;;;;;;5075515;28;20450;-68
2022/12/26 00:41:26;;;;;;;73.47;37.00;;;27.00;99.90;;;;;;5075620;28;20048;-67
2022/12/26 00:43:54;;;;;;;63.03;24.67;;;27.00;99.90;;;;;;5075428;28;20027;-67
2022/12/26 00:46:21;;;;;;;72.07;34.55;;;27.10;99.90;;;;;;5075251;28;20037;-67
2022/12/26 00:48:48;;;;;;;58.58;21.83;;;27.00;99.90;;;;;;5075453;28;20048;-67
2022/12/26 00:51:14;;;;;;;106.50;57.83;;;27.00;99.90;;;;;;5075008;28;20036;-67
2022/12/26 00:53:41;;;;;;;87.90;41.10;;;27.10;99.90;;;;;;5075151;28;20025;-67
2022/12/26 00:56:08;;;;;;;121.43;67.82;;;27.10;99.90;;;;;;5075022;28;20397;-67
2022/12/26 00:58:35;;;;;;;52.88;27.02;;;27.10;99.90;;;;;;5074852;28;20046;-73
2022/12/26 01:01:16;;;;;;;104.93;49.13;;;27.20;99.90;;;;;;5075131;28;20021;-73
2022/12/26 01:03:43;;;;;;;187.23;104.80;;;27.30;99.90;;;;;;5075081;28;20100;-71
2022/12/26 01:06:11;;;;;;;93.18;51.50;;;27.40;99.90;;;;;;5074869;28;20362;-70
2022/12/26 01:08:38;;;;;;;58.85;30.95;;;27.30;99.90;;;;;;5074874;28;20029;-70
2022/12/26 01:11:10;;;;;;;89.97;49.30;;;27.40;99.90;;;;;;5077534;28;20024;-69
2022/12/26 01:13:37;;;;;;;53.00;25.83;;;27.40;99.90;;;;;;5085244;28;20415;-70
2022/12/26 01:16:04;;;;;;;54.63;21.85;;;27.50;99.90;;;;;;5084158;28;20031;-69
2022/12/26 01:18:32;;;;;;;49.80;21.92;;;27.40;99.90;;;;;;5083580;28;20016;-69
2022/12/26 01:21:04;;;;;;;62.08;22.77;;;27.50;99.90;;;;;;5083285;28;20047;-69
2022/12/26 01:23:30;;;;;;;74.55;29.40;;;27.50;99.90;;;;;;5083475;28;20095;-69
2022/12/26 01:25:57;;;;;;;53.17;22.40;;;27.50;99.90;;;;;;5085148;28;20095;-69
2022/12/26 01:28:23;;;;;;;59.03;26.25;;;27.50;99.90;;;;;;5083877;28;20013;-70
2022/12/26 01:30:50;;;;;;;86.05;43.25;;;27.50;99.90;;;;;;5083430;28;20469;-69
2022/12/26 01:33:16;;;;;;;58.25;26.08;;;27.50;99.90;;;;;;5084907;28;20359;-69
2022/12/26 01:35:53;;;;;;;70.68;33.40;;;27.60;99.90;;;;;;5083746;28;20507;-72
2022/12/26 01:38:20;;;;;;;52.58;19.70;;;27.60;99.90;;;;;;5083157;28;20097;-72
2022/12/26 01:40:48;;;;;;;49.35;22.23;;;27.70;99.90;;;;;;5083588;28;20017;-75
2022/12/26 01:43:15;;;;;;;62.28;24.52;;;27.70;99.90;;;;;;5084998;28;20087;-70
2022/12/26 01:45:48;;;;;;;187.63;115.43;;;27.70;99.90;;;;;;5083867;28;20022;-72
2022/12/26 01:48:21;;;;;;;83.85;42.75;;;27.70;99.90;;;;;;5083902;28;20051;-72
2022/12/26 01:50:59;;;;;;;150.98;87.10;;;27.80;99.90;;;;;;5084284;28;20481;-71
2022/12/26 01:53:36;;;;;;;85.82;42.10;;;27.80;99.90;;;;;;5083984;28;20048;-71
2022/12/26 01:56:18;;;;;;;58.22;22.73;;;27.80;99.90;;;;;;5083607;28;20424;-72
2022/12/26 01:58:59;;;;;;;61.47;26.58;;;27.80;99.90;;;;;;5083741;28;20012;-71
2022/12/26 02:01:31;;;;;;;67.05;25.65;;;27.80;99.90;;;;;;5084033;28;20042;-69
2022/12/26 02:06:45;;;;;;;74.88;28.80;;;27.80;99.90;;;;;;5082087;28;20102;-71
2022/12/26 02:09:13;;;;;;;89.90;32.55;;;27.80;99.90;;;;;;5082332;28;20079;-72
2022/12/26 02:11:58;;;;;;;78.75;35.28;;;27.90;99.90;;;;;;5073736;28;20043;-73
2022/12/26 02:14:25;;;;;;;52.55;21.42;;;27.90;99.90;;;;;;5071429;28;20036;-71
2022/12/26 02:16:52;;;;;;;56.28;21.88;;;27.90;99.90;;;;;;5067354;28;20500;-70
2022/12/26 02:19:31;;;;;;;58.63;23.50;;;28.00;99.90;;;;;;5062384;28;20092;-71
2022/12/26 02:22:13;;;;;;;63.40;21.60;;;28.00;99.90;;;;;;5061399;28;20402;-72
2022/12/26 02:25:07;;;;;;;51.05;19.02;;;28.00;99.90;;;;;;5062450;28;20497;-71
2022/12/26 02:28:01;;;;;;;52.45;20.95;;;28.00;99.90;;;;;;5064006;28;20023;-72
2022/12/26 02:30:44;;;;;;;62.83;19.70;;;28.10;99.90;;;;;;5063348;28;20021;-72
2022/12/26 02:33:34;;;;;;;136.52;84.15;;;28.10;99.90;;;;;;5071522;28;20073;-72
2022/12/26 02:36:41;;;;;;;70.80;34.85;;;28.10;99.90;;;;;;5064479;28;20021;-72
2022/12/26 02:39:14;;;;;;;47.42;19.90;;;28.20;99.90;;;;;;5045269;28;20027;-72
2022/12/26 02:42:23;;;;;;;49.75;23.45;;;28.20;99.90;;;;;;5061920;28;20018;-72
2022/12/26 02:48:35;;;;;;;37.33;14.85;;;28.30;99.90;;;;;;5063171;28;20401;-69
2022/12/26 03:14:41;;;;;;;42.55;14.23;;;28.70;99.90;;;;;;5098727;28;20060;-67
2022/12/26 03:17:20;;;;;;;47.78;16.15;;;28.70;99.90;;;;;;5099887;28;20137;-68
2022/12/26 03:19:58;;;;;;;41.65;14.10;;;28.70;99.90;;;;;;5099704;28;20020;-69
2022/12/26 03:22:31;;;;;;;39.55;12.98;;;28.80;99.90;;;;;;5099784;28;20032;-68
2022/12/26 03:27:53;;;;;;;37.55;13.98;;;28.80;99.90;;;;;;5100131;28;20031;-69
2022/12/26 03:34:15;;;;;;;40.83;14.60;;;28.90;99.90;;;;;;5100105;28;20396;-69
2022/12/26 03:35:52;;;;;;;43.92;15.45;;;28.90;99.90;;;;;;5099362;28;20024;-68
2022/12/26 03:38:33;;;;;;;42.20;14.65;;;29.00;99.90;;;;;;5099639;28;20061;-70
2022/12/26 04:19:52;;;;;;;105.85;49.60;;;29.80;99.90;;;;;;5086356;28;20568;-66
2022/12/26 04:45:28;;;;;;;57.85;29.05;;;30.00;99.90;;;;;;5084653;28;20085;-66
2022/12/26 04:50:51;;;;;;;38.20;17.02;;;30.00;99.90;;;;;;5085517;28;20471;-68
2022/12/26 04:53:19;;;;;;;46.83;20.70;;;30.10;99.90;;;;;;5085621;28;20740;-66
2022/12/26 04:55:45;;;;;;;38.20;16.00;;;30.10;99.90;;;;;;5083056;28;20025;-67
2022/12/26 04:58:12;;;;;;;39.50;15.00;;;30.10;99.90;;;;;;5075347;28;20037;-68
2022/12/26 05:00:38;;;;;;;31.30;12.20;;;30.20;99.90;;;;;;5075136;28;20481;-67
2022/12/26 05:11:28;;;;;;;35.20;12.32;;;30.20;99.90;;;;;;5074937;28;20058;-66
2022/12/26 05:13:56;;;;;;;31.13;12.15;;;30.20;99.90;;;;;;5074864;28;20052;-66
2022/12/26 05:30:23;;;;;;;38.10;12.98;;;30.30;99.90;;;;;;5075019;28;20093;-68
2022/12/26 05:35:35;;;;;;;38.05;13.27;;;30.40;99.90;;;;;;5083204;28;20032;-69
2022/12/26 05:38:03;;;;;;;30.98;11.90;;;30.40;99.90;;;;;;5084799;28;20421;-66
2022/12/26 05:40:29;;;;;;;30.48;12.18;;;30.50;99.90;;;;;;5082359;28;20023;-67
2022/12/26 05:42:56;;;;;;;28.83;11.70;;;30.50;99.90;;;;;;5083341;28;20016;-68
2022/12/26 05:45:22;;;;;;;31.30;12.48;;;30.60;99.90;;;;;;5084540;28;20023;-70
2022/12/26 05:47:49;;;;;;;27.92;11.45;;;30.70;99.90;;;;;;5084135;28;20028;-69
2022/12/26 05:50:16;;;;;;;33.88;16.42;;;30.70;99.90;;;;;;5081117;28;20024;-69
2022/12/26 05:52:42;;;;;;;34.83;16.25;;;30.70;99.90;;;;;;5082991;28;21445;-65
2022/12/26 05:55:09;;;;;;;30.70;12.30;;;30.80;99.90;;;;;;5083959;28;20040;-67
2022/12/26 05:57:35;;;;;;;28.48;11.45;;;31.00;99.90;;;;;;5084570;28;20450;-68
2022/12/26 06:00:03;;;;;;;26.45;12.00;;;31.10;99.90;;;;;;5088590;28;20016;-68
2022/12/26 06:02:29;;;;;;;67.20;37.85;;;31.20;99.90;;;;;;5088375;28;20028;-70
2022/12/26 06:04:56;;;;;;;31.27;14.93;;;31.20;99.90;;;;;;5088172;28;20012;-69
2022/12/26 06:07:22;;;;;;;24.75;11.18;;;31.20;99.90;;;;;;5088654;28;20040;-68
2022/12/26 06:09:49;;;;;;;28.45;10.40;;;31.40;99.90;;;;;;5088603;28;20028;-69
2022/12/26 06:12:15;;;;;;;23.80;10.48;;;31.50;99.90;;;;;;5085901;28;20081;-70
2022/12/26 06:14:41;;;;;;;29.90;12.52;;;31.60;99.90;;;;;;5087625;28;21343;-69
2022/12/26 06:17:09;;;;;;;39.90;19.95;;;31.60;99.90;;;;;;5085885;28;20044;-69
2022/12/26 06:19:35;;;;;;;24.58;10.25;;;31.60;99.90;;;;;;5084283;28;20103;-68
2022/12/26 06:22:02;;;;;;;34.60;16.15;;;31.70;99.90;;;;;;5083160;28;20070;-67
2022/12/26 06:24:28;;;;;;;45.30;26.00;;;31.70;99.90;;;;;;5086058;28;20410;-68
2022/12/26 06:26:55;;;;;;;25.73;11.80;;;31.70;99.90;;;;;;5094014;28;20027;-69
2022/12/26 06:29:21;;;;;;;23.35;9.85;;;31.70;99.90;;;;;;5093826;28;20055;-69
2022/12/26 06:31:48;;;;;;;37.42;15.02;;;31.70;99.90;;;;;;5093695;28;20093;-68
2022/12/26 06:34:15;;;;;;;28.20;10.55;;;31.80;99.90;;;;;;5093148;28;20028;-66
2022/12/26 06:36:42;;;;;;;27.35;10.50;;;31.80;99.90;;;;;;5093594;28;20103;-68
2022/12/26 06:39:08;;;;;;;24.38;10.13;;;31.90;99.90;;;;;;5093767;28;20028;-69
2022/12/26 06:41:34;;;;;;;29.23;13.07;;;31.90;99.90;;;;;;5093613;28;20366;-68
2022/12/26 06:44:01;;;;;;;24.77;10.00;;;31.90;99.90;;;;;;5093300;28;20021;-69
2022/12/26 06:46:28;;;;;;;29.85;11.70;;;32.00;99.90;;;;;;5089868;28;20056;-68
2022/12/26 06:48:54;;;;;;;21.95;9.65;;;32.00;99.90;;;;;;5084099;28;20100;-68
2022/12/26 06:51:24;;;;;;;27.92;12.85;;;32.10;99.90;;;;;;5092063;28;20032;-70
2022/12/26 06:53:52;;;;;;;32.60;14.60;;;32.10;99.90;;;;;;5087117;28;20476;-68
2022/12/26 06:56:25;;;;;;;25.63;11.50;;;32.10;99.90;;;;;;5085161;28;20039;-67
2022/12/26 06:58:59;;;;;;;21.48;10.43;;;32.20;99.90;;;;;;5089653;28;20081;-68
2022/12/26 07:01:27;;;;;;;25.05;10.93;;;32.20;99.90;;;;;;5073101;28;20025;-65
2022/12/26 07:03:54;;;;;;;29.35;12.85;;;32.10;99.90;;;;;;5072798;28;20405;-65
2022/12/26 07:06:34;;;;;;;18.42;10.77;;;32.20;99.90;;;;;;5072595;28;20052;-64
2022/12/26 07:09:04;;;;;;;24.42;10.93;;;32.30;99.90;;;;;;5072633;28;20020;-65
2022/12/26 07:11:33;;;;;;;23.70;10.23;;;32.40;99.90;;;;;;5078462;28;20031;-67
2022/12/26 07:14:03;;;;;;;20.33;11.20;;;32.40;99.90;;;;;;5080778;28;20522;-66
2022/12/26 07:16:30;;;;;;;18.67;9.90;;;32.30;99.90;;;;;;5079573;28;20036;-67
2022/12/26 07:18:58;;;;;;;23.48;10.55;;;32.40;99.90;;;;;;5081994;28;20405;-65
2022/12/26 07:21:25;;;;;;;20.98;9.52;;;32.50;99.90;;;;;;5080355;28;20082;-67
2022/12/26 07:23:52;;;;;;;21.15;9.55;;;32.50;99.90;;;;;;5081296;28;20055;-66
2022/12/26 07:26:22;;;;;;;23.92;10.07;;;32.50;99.90;;;;;;5083471;28;20208;-65
2022/12/26 07:28:52;;;;;;;18.38;9.35;;;32.60;99.90;;;;;;5086701;28;20024;-66
2022/12/26 07:31:19;;;;;;;20.13;9.90;;;32.70;99.90;;;;;;5082139;28;20048;-66
2022/12/26 07:33:50;;;;;;;30.60;15.40;;;32.70;99.90;;;;;;5083159;28;20016;-67
2022/12/26 07:36:24;;;;;;;20.58;10.13;;;32.70;99.90;;;;;;5092766;28;20031;-68
2022/12/26 07:38:50;;;;;;;25.20;9.30;;;32.70;99.90;;;;;;5080713;28;20415;-67
2022/12/26 07:44:02;;;;;;;35.47;9.27;;;32.90;98.30;;;;;;5072778;28;20024;-67
2022/12/26 07:46:29;;;;;;;28.20;9.02;;;32.90;98.30;;;;;;5075097;28;20078;-65
2022/12/26 07:48:56;;;;;;;15.38;9.25;;;32.90;98.50;;;;;;5076714;28;20021;-65
2022/12/26 07:51:22;;;;;;;28.60;11.00;;;33.00;99.70;;;;;;5075806;28;20027;-65
2022/12/26 07:53:49;;;;;;;20.90;9.35;;;33.00;99.90;;;;;;5076063;28;20044;-64
2022/12/26 07:56:15;;;;;;;26.08;10.55;;;32.90;99.30;;;;;;5075802;28;20031;-64
2022/12/26 07:58:42;;;;;;;18.73;7.68;;;33.00;98.90;;;;;;5075779;28;20397;-65
2022/12/26 08:01:09;;;;;;;18.67;7.90;;;33.00;98.40;;;;;;5075999;28;20479;-64
2022/12/26 08:03:35;;;;;;;19.88;8.55;;;33.10;95.80;;;;;;5075529;28;20470;-65
2022/12/26 08:06:02;;;;;;;17.67;8.13;;;33.10;96.00;;;;;;5075646;28;20028;-65
2022/12/26 08:08:28;;;;;;;19.35;9.63;;;33.10;97.30;;;;;;5075835;28;20025;-65
2022/12/26 08:10:59;;;;;;;27.23;11.70;;;33.10;97.40;;;;;;5087499;28;20388;-65
2022/12/26 08:13:28;;;;;;;19.43;9.03;;;33.00;97.70;;;;;;5075926;28;20055;-65
2022/12/26 08:15:55;;;;;;;17.17;8.27;;;33.00;97.00;;;;;;5084990;28;20104;-65
2022/12/26 08:18:21;;;;;;;19.42;7.85;;;32.90;97.30;;;;;;5086060;28;20040;-65
2022/12/26 08:20:48;;;;;;;17.75;8.88;;;32.90;96.80;;;;;;5083886;28;20021;-65
2022/12/26 08:23:16;;;;;;;18.98;8.95;;;32.90;96.10;;;;;;5085233;28;20031;-66
2022/12/26 08:25:42;;;;;;;17.23;8.82;;;32.90;96.10;;;;;;5085297;28;20028;-65
2022/12/26 08:28:09;;;;;;;22.30;9.52;;;33.00;96.30;;;;;;5066745;28;20499;-66
2022/12/26 08:30:39;;;;;;;17.70;8.27;;;33.00;96.20;;;;;;5083973;28;20099;-66
2022/12/26 08:33:07;;;;;;;20.02;9.80;;;33.00;95.70;;;;;;5084207;28;20021;-66
2022/12/26 08:35:37;;;;;;;19.98;8.63;;;33.10;95.50;;;;;;5083936;28;20016;-66
2022/12/26 08:38:04;;;;;;;23.70;10.10;;;33.10;95.10;;;;;;5075332;28;20384;-66
2022/12/26 08:40:31;;;;;;;21.65;9.73;;;33.10;95.70;;;;;;5077608;28;20024;-65
2022/12/26 08:43:01;;;;;;;25.98;12.00;;;33.20;96.00;;;;;;5084090;28;20026;-67
2022/12/26 08:45:27;;;;;;;23.60;10.73;;;33.10;96.30;;;;;;5075223;28;20021;-67
2022/12/26 08:47:54;;;;;;;16.20;9.02;;;33.10;95.90;;;;;;5075099;28;20059;-67
2022/12/26 08:50:21;;;;;;;18.52;9.38;;;33.20;95.50;;;;;;5075207;28;20527;-65
2022/12/26 08:52:47;;;;;;;17.63;9.43;;;33.20;95.20;;;;;;5074823;28;20040;-67
2022/12/26 08:55:15;;;;;;;24.65;11.63;;;33.20;95.30;;;;;;5075176;28;20068;-66
2022/12/26 08:57:41;;;;;;;19.95;10.50;;;33.20;95.10;;;;;;5074412;28;20024;-66
2022/12/26 09:00:09;;;;;;;20.05;10.18;;;33.20;93.90;;;;;;5074996;28;20024;-66
2022/12/26 09:02:35;;;;;;;22.73;11.55;;;33.10;94.40;;;;;;5082753;28;20472;-65
2022/12/26 09:05:02;;;;;;;24.85;15.63;;;33.10;93.90;;;;;;5084874;28;20052;-66
2022/12/26 09:07:28;;;;;;;19.00;10.93;;;33.10;92.80;;;;;;5083283;28;20017;-67
2022/12/26 09:09:55;;;;;;;19.02;9.63;;;33.10;93.20;;;;;;5084935;28;20023;-67
2022/12/26 09:12:21;;;;;;;20.38;9.43;;;33.10;92.80;;;;;;5084619;28;20112;-66
2022/12/26 09:14:48;;;;;;;20.30;8.55;;;33.10;92.80;;;;;;5083205;28;20085;-69
2022/12/26 09:17:14;;;;;;;18.85;8.20;;;33.10;93.30;;;;;;5074555;28;20086;-67
2022/12/26 09:19:41;;;;;;;16.67;9.20;;;33.10;93.00;;;;;;5074515;28;20032;-67
2022/12/26 09:24:53;;;;;;;19.58;10.05;;;33.10;93.10;;;;;;5084223;28;20027;-65
2022/12/26 09:27:20;;;;;;;34.60;13.00;;;33.10;93.70;;;;;;5084142;28;20047;-66
2022/12/26 09:29:46;;;;;;;28.08;11.75;;;33.10;93.30;;;;;;5082742;28;20033;-66
2022/12/26 09:32:13;;;;;;;30.90;12.13;;;33.10;93.70;;;;;;5082288;28;20028;-67
2022/12/26 09:34:42;;;;;;;28.60;11.07;;;33.10;93.60;;;;;;5083903;28;20024;-66
2022/12/26 09:37:09;;;;;;;20.65;9.85;;;33.10;93.50;;;;;;5082870;28;20028;-66
2022/12/26 09:39:35;;;;;;;24.52;12.43;;;33.10;93.60;;;;;;5081836;28;20464;-65
2022/12/26 09:42:32;;;;;;;18.98;10.57;;;33.10;93.40;;;;;;5083438;28;20024;-65
2022/12/26 09:45:13;;;;;;;22.27;11.48;;;33.10;93.30;;;;;;5083451;28;20480;-65
2022/12/26 09:48:00;;;;;;;24.88;12.45;;;33.10;94.20;;;;;;5083799;28;20020;-66
2022/12/26 09:50:34;;;;;;;31.33;14.88;;;33.10;94.50;;;;;;5085108;28;20016;-66
2022/12/26 09:53:10;;;;;;;26.95;14.27;;;33.10;94.90;;;;;;5091543;28;20028;-64
2022/12/26 09:55:49;;;;;;;30.27;15.35;;;33.10;95.20;;;;;;5087232;28;20032;-64
2022/12/26 09:58:23;;;;;;;28.08;13.98;;;33.10;95.10;;;;;;5082621;28;20031;-64
2022/12/26 10:01:23;;;;;;;27.85;13.70;;;33.10;95.30;;;;;;5083498;28;20104;-65
2022/12/26 10:03:52;;;;;;;29.08;13.00;;;33.10;95.40;;;;;;5083330;28;20008;-66
2022/12/26 10:06:43;;;;;;;30.13;13.63;;;33.10;95.50;;;;;;5082034;28;20543;-65
2022/12/26 10:09:21;;;;;;;22.85;11.18;;;33.10;95.60;;;;;;5072743;28;20025;-66
2022/12/26 10:12:02;;;;;;;24.88;11.43;;;33.00;95.70;;;;;;5073649;28;20032;-66
2022/12/26 10:15:06;;;;;;;24.77;13.25;;;33.00;96.10;;;;;;5080512;28;20032;-66
2022/12/26 10:18:07;;;;;;;32.75;14.45;;;32.90;95.90;;;;;;5082184;28;20025;-66
2022/12/26 10:20:46;;;;;;;25.25;13.60;;;32.90;96.20;;;;;;5072362;28;20020;-67
2022/12/26 10:23:36;;;;;;;23.92;13.05;;;32.80;96.20;;;;;;5072862;28;20055;-67
2022/12/26 10:26:17;;;;;;;28.95;13.73;;;32.70;95.80;;;;;;5087341;28;20531;-67
2022/12/26 10:29:10;;;;;;;27.17;15.13;;;32.70;95.40;;;;;;5080413;28;20043;-67
2022/12/26 10:32:04;;;;;;;43.80;21.58;;;32.70;95.80;;;;;;5072752;28;20070;-66
2022/12/26 10:34:52;;;;;;;41.03;20.50;;;32.70;95.90;;;;;;5073881;28;20031;-67
2022/12/26 10:37:38;;;;;;;51.08;26.15;;;32.70;95.80;;;;;;5086676;28;20024;-66
2022/12/26 10:40:55;;;;;;;48.45;25.95;;;32.60;96.40;;;;;;5081960;28;20154;-66
2022/12/26 10:43:33;;;;;;;52.08;24.23;;;32.60;96.30;;;;;;4960860;28;20060;-65
2022/12/26 10:46:41;;;;;;;57.95;28.33;;;32.50;97.30;;;;;;4957067;28;20038;-66
2022/12/26 10:49:11;;;;;;;51.70;20.27;;;32.50;98.20;;;;;;4976758;28;20483;-66
2022/12/26 10:51:38;;;;;;;75.22;44.63;;;32.40;99.20;;;;;;5082600;28;20540;-65
2022/12/26 10:54:13;;;;;;;62.67;35.88;;;32.30;99.90;;;;;;5089812;28;20025;-66
2022/12/26 10:56:40;;;;;;;48.05;25.77;;;32.20;99.90;;;;;;5087175;28;20028;-69
2022/12/26 10:59:20;;;;;;;48.33;23.27;;;32.20;99.90;;;;;;5083146;28;20350;-68
2022/12/26 11:01:47;;;;;;;72.30;41.03;;;32.20;99.90;;;;;;5081975;28;20085;-66
2022/12/26 11:04:22;;;;;;;57.63;34.40;;;32.00;99.90;;;;;;5090173;28;20489;-67
2022/12/26 11:06:53;;;;;;;47.70;20.33;;;31.90;99.90;;;;;;5082013;28;20033;-67
2022/12/26 11:09:41;;;;;;;48.73;23.10;;;31.90;99.90;;;;;;5084187;28;20054;-68
2022/12/26 11:12:37;;;;;;;59.15;23.10;;;31.90;99.90;;;;;;5087407;28;20034;-70
2022/12/26 11:15:07;;;;;;;42.38;16.35;;;31.90;99.90;;;;;;5092524;28;20135;-67
2022/12/26 11:17:39;;;;;;;43.55;18.85;;;31.80;99.90;;;;;;5093539;28;20028;-66
2022/12/26 11:20:24;;;;;;;37.25;16.30;;;31.70;99.90;;;;;;5095390;28;20024;-67
2022/12/26 11:22:50;;;;;;;59.85;27.55;;;31.60;99.90;;;;;;5098687;28;20362;-67
2022/12/26 11:25:27;;;;;;;61.38;29.45;;;31.50;99.90;;;;;;5098671;28;20039;-67
2022/12/26 11:27:57;;;;;;;69.22;35.78;;;31.50;99.90;;;;;;5098049;28;20021;-66
2022/12/26 11:30:30;;;;;;;62.72;29.95;;;31.50;99.90;;;;;;5089910;28;20439;-67
2022/12/26 11:33:04;;;;;;;51.47;23.88;;;31.50;99.90;;;;;;5096315;28;20028;-69
2022/12/26 11:35:36;;;;;;;45.80;23.23;;;31.40;99.90;;;;;;5096762;28;20479;-71
2022/12/26 11:38:05;;;;;;;72.40;33.50;;;31.40;99.90;;;;;;5096862;28;20030;-67
2022/12/26 11:40:36;;;;;;;43.60;21.58;;;31.40;99.90;;;;;;5096401;28;20030;-67
2022/12/26 11:43:06;;;;;;;92.87;41.53;;;31.30;99.90;;;;;;5085724;28;20545;-68
2022/12/26 11:45:42;;;;;;;47.45;22.88;;;31.30;99.90;;;;;;5089236;28;20077;-64
2022/12/26 11:48:22;;;;;;;38.83;17.60;;;31.30;99.90;;;;;;5086170;28;20111;-65
2022/12/26 11:50:49;;;;;;;45.58;21.17;;;31.20;99.90;;;;;;5077290;28;20029;-67
2022/12/26 11:53:18;;;;;;;51.00;20.48;;;31.20;99.90;;;;;;5076211;28;20032;-71
2022/12/26 11:56:00;;;;;;;57.88;20.38;;;31.10;99.90;;;;;;5084587;28;20036;-68
2022/12/26 11:58:29;;;;;;;49.25;22.48;;;31.10;99.90;;;;;;5075772;28;20024;-70
2022/12/26 12:00:59;;;;;;;57.97;22.98;;;31.00;99.90;;;;;;5076291;28;20040;-70
2022/12/26 12:03:47;;;;;;;54.08;22.52;;;31.00;99.90;;;;;;5075203;28;20445;-70
2022/12/26 12:06:40;;;;;;;53.45;22.98;;;31.00;99.90;;;;;;5076197;28;20107;-69
2022/12/26 12:09:25;;;;;;;53.95;23.05;;;31.00;99.90;;;;;;5076089;28;20017;-70
2022/12/26 12:12:00;;;;;;;53.20;22.02;;;30.90;99.90;;;;;;5074671;28;20133;-68
2022/12/26 12:14:58;;;;;;;44.30;21.20;;;30.90;99.90;;;;;;5074093;28;20037;-69
2022/12/26 12:17:46;;;;;;;49.70;21.17;;;30.80;99.90;;;;;;5074247;28;20528;-69
2022/12/26 12:20:40;;;;;;;56.03;23.00;;;30.80;99.90;;;;;;5074106;28;20025;-68
2022/12/26 12:23:37;;;;;;;56.47;21.73;;;30.80;99.90;;;;;;5073946;28;20478;-68
2022/12/26 12:26:19;;;;;;;50.42;20.13;;;30.70;99.90;;;;;;5080201;28;20082;-68
2022/12/26 12:29:04;;;;;;;56.47;18.83;;;30.70;99.90;;;;;;5095565;28;20016;-68
2022/12/26 12:31:54;;;;;;;51.55;22.05;;;30.60;99.90;;;;;;5095740;28;20038;-68
2022/12/26 12:34:42;;;;;;;54.53;21.38;;;30.60;99.90;;;;;;5095754;28;20020;-68
2022/12/26 12:38:02;;;;;;;44.33;18.35;;;30.60;99.90;;;;;;5095814;28;20028;-66
2022/12/26 12:40:41;;;;;;;49.63;19.80;;;30.60;99.90;;;;;;4994405;28;20449;-68
2022/12/26 12:43:26;;;;;;;51.92;20.23;;;30.50;99.90;;;;;;5095700;28;20497;-67
2022/12/26 12:46:10;;;;;;;59.90;23.65;;;30.50;99.90;;;;;;5095520;28;20085;-68
2022/12/26 12:49:08;;;;;;;70.88;26.48;;;30.50;99.90;;;;;;5096060;28;20016;-67
2022/12/26 12:52:22;;;;;;;79.30;43.85;;;30.40;99.90;;;;;;5041184;28;20039;-68
2022/12/26 12:55:22;;;;;;;58.85;28.30;;;30.30;99.90;;;;;;5061779;28;20036;-68
2022/12/26 12:57:55;;;;;;;100.97;49.58;;;30.30;99.90;;;;;;5089345;28;20115;-70
2022/12/26 13:00:27;;;;;;;106.65;59.63;;;30.20;99.90;;;;;;5082919;28;20028;-71
2022/12/26 13:02:53;;;;;;;63.63;32.83;;;30.30;99.90;;;;;;5093016;28;20023;-71
2022/12/26 13:05:55;;;;;;;60.42;24.42;;;30.30;99.90;;;;;;5086166;28;20025;-67
2022/12/26 13:08:28;;;;;;;48.67;19.80;;;30.20;99.90;;;;;;5095342;28;20142;-71
2022/12/26 13:11:06;;;;;;;45.90;20.80;;;30.10;99.90;;;;;;5095263;28;20032;-69
2022/12/26 13:13:48;;;;;;;92.68;56.13;;;30.10;99.90;;;;;;5060439;28;20409;-71
2022/12/26 13:16:23;;;;;;;66.13;31.17;;;30.10;99.90;;;;;;5091808;28;20044;-73
2022/12/26 13:19:01;;;;;;;78.60;42.40;;;30.10;99.90;;;;;;5084373;28;20373;-72
2022/12/26 13:21:33;;;;;;;80.85;40.22;;;30.10;99.90;;;;;;5068801;28;20092;-65
2022/12/26 13:24:26;;;;;;;53.40;21.85;;;30.10;99.90;;;;;;5088951;28;20039;-67
2022/12/26 13:27:13;;;;;;;92.20;55.80;;;30.10;99.90;;;;;;5081941;28;20179;-72
2022/12/26 13:29:42;;;;;;;74.47;38.10;;;30.00;99.90;;;;;;5093952;28;20027;-67
2022/12/26 13:32:24;;;;;;;51.78;21.35;;;30.00;99.90;;;;;;5075508;28;20035;-65
2022/12/26 13:34:53;;;;;;;65.18;20.58;;;30.00;99.90;;;;;;5077469;28;20021;-65
2022/12/26 13:37:54;;;;;;;52.15;19.02;;;29.90;99.90;;;;;;5083542;28;20163;-66
2022/12/26 13:40:27;;;;;;;65.13;22.40;;;29.80;99.90;;;;;;5074751;28;20070;-65
2022/12/26 13:45:56;;;;;;;57.05;23.92;;;29.70;99.90;;;;;;5082901;28;20499;-67
2022/12/26 13:48:26;;;;;;;53.42;21.58;;;29.70;99.90;;;;;;5075964;28;20021;-67
2022/12/26 13:50:55;;;;;;;48.22;19.35;;;29.70;99.90;;;;;;5074229;28;20020;-68
2022/12/26 13:53:24;;;;;;;45.25;17.25;;;29.70;99.90;;;;;;5073772;28;20032;-69
2022/12/26 13:56:02;;;;;;;47.50;19.13;;;29.60;99.90;;;;;;5074104;28;20066;-69
2022/12/26 13:58:51;;;;;;;48.33;19.73;;;29.60;99.90;;;;;;5073297;28;20064;-68
2022/12/26 14:01:54;;;;;;;51.83;18.42;;;29.60;99.90;;;;;;5073849;28;20066;-69
2022/12/26 14:04:53;;;;;;;43.30;17.70;;;29.60;99.90;;;;;;5073653;28;20021;-69
2022/12/26 14:07:35;;;;;;;49.33;19.92;;;29.60;99.90;;;;;;5073750;28;20024;-69
2022/12/26 14:10:32;;;;;;;47.20;19.75;;;29.70;99.90;;;;;;5073666;28;20032;-68
2022/12/26 14:13:23;;;;;;;47.33;17.80;;;29.70;99.90;;;;;;5073675;28;20109;-69
2022/12/26 14:16:05;;;;;;;42.95;14.52;;;29.60;99.90;;;;;;5074508;28;20074;-66
2022/12/26 14:18:31;;;;;;;41.60;14.98;;;29.50;99.90;;;;;;5083219;28;20056;-65
2022/12/26 14:21:31;;;;;;;40.20;16.58;;;29.50;99.90;;;;;;5095202;28;20032;-66
2022/12/26 14:24:22;;;;;;;38.13;15.10;;;29.50;99.90;;;;;;5094433;28;20073;-66
2022/12/26 14:27:12;;;;;;;30.33;12.85;;;29.50;99.90;;;;;;5093554;28;20384;-65
2022/12/26 14:30:04;;;;;;;48.78;15.60;;;29.50;99.90;;;;;;5075766;28;20028;-63
2022/12/26 14:32:46;;;;;;;41.13;15.82;;;29.40;99.90;;;;;;5093520;28;20031;-64
2022/12/26 14:35:21;;;;;;;44.35;17.40;;;29.40;99.90;;;;;;5093251;28;20020;-64
2022/12/26 14:38:35;;;;;;;53.05;19.88;;;29.50;99.90;;;;;;5093895;28;20106;-63
2022/12/26 14:44:28;;;;;;;45.88;19.10;;;29.40;99.90;;;;;;5012272;28;20630;-65
2022/12/26 14:46:58;;;;;;;43.20;17.35;;;29.30;99.90;;;;;;5063920;28;20123;-65
2022/12/26 14:49:31;;;;;;;54.22;19.33;;;29.30;99.90;;;;;;5092380;28;20016;-66
2022/12/26 14:52:32;;;;;;;49.28;20.33;;;29.40;99.90;;;;;;5087783;28;20028;-65
2022/12/26 14:54:59;;;;;;;48.17;18.77;;;29.30;99.90;;;;;;5055877;28;20068;-66
2022/12/26 14:57:47;;;;;;;47.70;18.23;;;29.30;99.90;;;;;;5075757;28;20020;-66
2022/12/26 15:00:28;;;;;;;50.88;18.60;;;29.30;99.90;;;;;;5083473;28;20017;-69
2022/12/26 15:03:03;;;;;;;41.17;15.82;;;29.30;99.90;;;;;;5093528;28;20020;-68
2022/12/26 15:05:37;;;;;;;46.83;17.38;;;29.30;99.90;;;;;;5093494;28;20020;-68
2022/12/26 15:08:54;;;;;;;43.72;18.80;;;29.30;99.90;;;;;;5092626;28;20028;-65
2022/12/26 15:11:28;;;;;;;47.40;18.25;;;29.30;99.90;;;;;;4991556;28;20038;-68
2022/12/26 15:14:10;;;;;;;44.63;18.08;;;29.30;99.90;;;;;;5077987;28;20040;-66
2022/12/26 15:17:25;;;;;;;47.72;21.30;;;29.20;99.90;;;;;;5093029;28;20404;-67
2022/12/26 15:20:00;;;;;;;57.78;24.52;;;29.20;99.90;;;;;;4991549;28;20126;-67
2022/12/26 15:23:03;;;;;;;47.22;18.42;;;29.20;99.90;;;;;;4991657;28;20018;-67
2022/12/26 15:26:07;;;;;;;44.53;18.02;;;29.10;99.90;;;;;;5079031;28;20553;-66